Time;durP1;ratioP1;P1;durP2;ratioP2;P2;SDS_P1;SDS_P2;PMS_P1;PMS_P2;Temp;Humidity;BMP_temperature;BMP_pressure;BME280_temperature;BME280_humidity;BME280_pressure;Samples;Min_cycle;Max_cycle;Signal;HPM_P1;HPM_P2
2021/08/17 00:00:31;;;;;;;4.20;1.60;;;;;;;13.23;86.70;100463.31;4947876;28;20110;-82
2021/08/17 00:02:57;;;;;;;7.47;1.60;;;;;;;13.24;86.87;100465.94;4965179;28;20058;-83
2021/08/17 00:05:24;;;;;;;11.70;2.17;;;;;;;13.25;86.74;100464.16;4958245;28;20046;-83
2021/08/17 00:07:51;;;;;;;7.90;2.33;;;;;;;13.24;87.43;100467.69;4963495;28;20046;-83
2021/08/17 00:10:17;;;;;;;9.82;1.95;;;;;;;13.23;87.70;100474.72;4962679;28;21025;-83
2021/08/17 00:12:44;;;;;;;6.78;1.70;;;;;;;13.20;89.58;100463.41;4962864;28;20042;-83
2021/08/17 00:15:12;;;;;;;4.20;1.70;;;;;;;13.07;91.20;100461.06;4964128;28;20501;-83
2021/08/17 00:17:39;;;;;;;9.82;2.67;;;;;;;13.01;92.25;100470.84;4945245;28;20505;-83
2021/08/17 00:20:07;;;;;;;5.63;1.10;;;;;;;12.88;94.82;100465.84;4958532;28;20749;-83
2021/08/17 00:22:37;;;;;;;4.43;1.48;;;;;;;12.69;96.63;100457.50;4972951;28;20043;-83
2021/08/17 00:25:06;;;;;;;4.97;1.67;;;;;;;12.55;97.45;100444.66;4964460;28;20057;-84
2021/08/17 00:27:33;;;;;;;6.32;1.80;;;;;;;12.50;98.48;100459.66;4962613;28;20042;-83
2021/08/17 00:29:59;;;;;;;4.60;1.90;;;;;;;12.48;98.99;100471.09;4961531;28;20043;-83
2021/08/17 00:32:26;;;;;;;9.15;2.85;;;;;;;12.47;98.50;100475.44;4976508;28;20069;-84
2021/08/17 00:34:53;;;;;;;5.30;1.85;;;;;;;12.47;98.71;100469.34;4962262;28;20066;-83
2021/08/17 00:37:20;;;;;;;8.15;2.47;;;;;;;12.50;98.55;100472.78;4978032;28;20046;-82
2021/08/17 00:39:47;;;;;;;7.35;2.30;;;;;;;12.51;98.58;100471.84;4965246;28;20081;-84
2021/08/17 00:42:13;;;;;;;4.32;1.70;;;;;;;12.51;98.99;100466.59;4980560;28;20082;-83
2021/08/17 00:44:40;;;;;;;4.70;2.25;;;;;;;12.50;99.18;100466.66;4981137;28;20046;-84
2021/08/17 00:47:06;;;;;;;7.50;2.03;;;;;;;12.52;99.33;100457.84;4961780;28;20912;-83
2021/08/17 00:49:33;;;;;;;5.18;2.08;;;;;;;12.54;99.52;100461.31;4962055;28;20077;-83
2021/08/17 00:52:09;;;;;;;4.80;2.08;;;;;;;12.57;99.22;100471.75;4963131;28;20165;-83
2021/08/17 00:54:38;;;;;;;3.25;2.25;;;;;;;12.58;99.39;100464.75;4959508;28;20054;-83
2021/08/17 00:57:07;;;;;;;6.97;2.42;;;;;;;12.62;98.83;100460.28;4965927;28;20074;-84
2021/08/17 00:59:34;;;;;;;9.38;2.10;;;;;;;12.65;98.84;100476.84;4931945;28;20118;-84
2021/08/17 01:02:03;;;;;;;7.43;2.42;;;;;;;12.67;99.21;100482.06;4932561;29;20502;-83
2021/08/17 01:04:30;;;;;;;10.73;2.38;;;;;;;12.67;99.11;100482.94;4946627;28;20090;-83
2021/08/17 01:06:57;;;;;;;7.00;2.25;;;;;;;12.66;98.86;100483.84;4928370;29;20087;-84
2021/08/17 01:09:23;;;;;;;7.68;2.88;;;;;;;12.68;98.72;100473.28;4943970;28;20075;-83
2021/08/17 01:11:51;;;;;;;9.57;2.92;;;;;;;12.73;98.58;100461.78;4940911;28;20059;-83
2021/08/17 01:14:19;;;;;;;5.80;2.20;;;;;;;12.82;98.03;100473.00;4929063;29;20715;-83
2021/08/17 01:16:47;;;;;;;12.77;3.00;;;;;;;12.83;98.44;100483.47;4969729;28;20114;-83
2021/08/17 01:19:17;;;;;;;9.77;2.33;;;;;;;12.83;98.17;100480.00;4946691;28;20715;-83
2021/08/17 01:21:44;;;;;;;11.07;2.55;;;;;;;12.82;98.05;100481.75;4965210;28;20071;-83
2021/08/17 01:24:11;;;;;;;6.82;2.42;;;;;;;12.86;98.16;100475.53;4962434;28;20051;-83
2021/08/17 01:26:37;;;;;;;9.30;2.53;;;;;;;12.91;97.53;100483.31;4931483;28;20054;-83
2021/08/17 01:29:04;;;;;;;11.40;2.72;;;;;;;12.93;98.16;100491.16;4945389;28;20724;-84
2021/08/17 01:31:31;;;;;;;9.38;2.90;;;;;;;12.90;97.88;100500.81;4950807;28;20541;-83
2021/08/17 01:33:58;;;;;;;14.32;3.50;;;;;;;12.91;98.22;100494.69;4932509;28;20050;-83
2021/08/17 01:36:24;;;;;;;11.68;3.80;;;;;;;12.95;97.76;100502.53;4931858;28;20054;-84
2021/08/17 01:38:52;;;;;;;14.23;4.03;;;;;;;12.97;97.37;100495.44;4961756;28;20058;-83
2021/08/17 01:41:19;;;;;;;10.18;3.45;;;;;;;13.00;97.65;100498.03;4960848;28;20050;-83
2021/08/17 01:43:47;;;;;;;10.82;3.40;;;;;;;13.01;97.62;100508.50;4949835;28;20510;-83
2021/08/17 01:46:15;;;;;;;7.60;3.15;;;;;;;13.07;97.25;100503.13;4964152;28;20387;-83
2021/08/17 01:48:42;;;;;;;12.23;2.70;;;;;;;13.10;97.18;100510.03;4928501;28;20042;-83
2021/08/17 01:51:09;;;;;;;14.32;3.45;;;;;;;13.11;96.42;100506.53;4968911;28;20067;-83
2021/08/17 01:53:37;;;;;;;12.45;2.80;;;;;;;13.08;96.95;100496.94;4946548;28;20051;-83
2021/08/17 01:56:14;;;;;;;9.23;3.03;;;;;;;13.04;96.76;100508.44;4981393;28;20038;-83
2021/08/17 01:58:44;;;;;;;8.63;3.47;;;;;;;13.05;96.73;100506.69;4933396;28;20133;-84
2021/08/17 02:01:13;;;;;;;18.05;3.67;;;;;;;13.08;97.06;100511.84;4946520;28;20061;-83
2021/08/17 02:03:40;;;;;;;13.57;3.65;;;;;;;13.10;96.43;100510.03;4949658;28;20077;-83
2021/08/17 02:06:08;;;;;;;15.77;4.13;;;;;;;13.08;96.83;100509.22;4948138;28;20117;-83
2021/08/17 02:08:34;;;;;;;11.30;2.70;;;;;;;13.13;96.38;100522.25;4963638;28;20072;-83
2021/08/17 02:11:05;;;;;;;13.07;3.58;;;;;;;13.19;95.67;100514.25;4964392;28;20099;-83
2021/08/17 02:13:34;;;;;;;15.38;4.50;;;;;;;13.21;95.66;100517.72;4963382;28;20137;-83
2021/08/17 02:16:01;;;;;;;10.38;2.95;;;;;;;13.20;95.84;100513.34;4979940;28;20054;-83
2021/08/17 02:18:31;;;;;;;16.55;4.18;;;;;;;13.22;95.25;100516.81;4947118;28;20050;-83
2021/08/17 02:20:59;;;;;;;15.98;4.03;;;;;;;13.26;94.73;100515.84;4947954;28;20051;-83
2021/08/17 02:23:30;;;;;;;14.20;3.53;;;;;;;13.22;95.15;100524.72;4933384;28;20074;-83
2021/08/17 02:25:57;;;;;;;13.77;3.90;;;;;;;13.28;94.67;100521.91;4962321;28;20050;-83
2021/08/17 02:28:24;;;;;;;15.57;3.22;;;;;;;13.33;94.07;100533.19;4963367;28;20062;-82
2021/08/17 02:30:52;;;;;;;8.85;3.38;;;;;;;13.36;93.71;100517.41;4944221;28;20126;-83
2021/08/17 02:33:20;;;;;;;11.15;3.53;;;;;;;13.35;93.79;100533.16;4948412;28;20114;-83
2021/08/17 02:35:47;;;;;;;9.05;3.40;;;;;;;13.32;93.58;100514.84;4943888;28;20046;-83
2021/08/17 02:38:14;;;;;;;12.13;3.83;;;;;;;13.33;93.27;100521.84;4930789;28;20716;-82
2021/08/17 02:40:41;;;;;;;14.07;3.40;;;;;;;13.39;92.89;100524.38;4947849;28;20134;-83
2021/08/17 02:43:08;;;;;;;10.82;3.25;;;;;;;13.35;92.68;100507.75;4963771;28;20114;-83
2021/08/17 02:45:35;;;;;;;17.88;3.35;;;;;;;13.32;92.48;100526.22;4945391;28;20050;-83
2021/08/17 02:48:04;;;;;;;10.98;3.80;;;;;;;13.31;92.93;100523.63;4931066;28;20078;-83
2021/08/17 02:50:31;;;;;;;9.73;3.20;;;;;;;13.27;92.62;100529.84;4963305;28;20071;-83
2021/08/17 02:52:58;;;;;;;10.63;3.95;;;;;;;13.22;92.83;100536.06;4948617;28;20054;-83
2021/08/17 02:55:24;;;;;;;11.68;3.72;;;;;;;13.26;92.44;100529.00;4932429;28;20151;-83
2021/08/17 02:57:59;;;;;;;10.20;2.95;;;;;;;13.29;92.04;100528.91;4949238;28;20944;-83
2021/08/17 03:00:26;;;;;;;12.75;3.80;;;;;;;13.43;91.09;100528.66;4976370;28;20058;-83
2021/08/17 03:02:55;;;;;;;21.73;4.35;;;;;;;13.43;90.70;100533.91;4931991;28;20043;-83
2021/08/17 03:05:25;;;;;;;14.15;3.08;;;;;;;13.40;90.56;100520.81;4931135;28;22906;-83
2021/08/17 03:08:00;;;;;;;14.85;3.35;;;;;;;13.43;90.25;100535.66;4963364;28;20066;-83
2021/08/17 03:10:27;;;;;;;12.60;2.50;;;;;;;13.44;90.23;100537.38;4950748;28;20143;-83
2021/08/17 03:12:53;;;;;;;11.23;3.58;;;;;;;13.45;89.79;100547.88;4964555;28;20042;-83
2021/08/17 03:15:21;;;;;;;10.27;2.50;;;;;;;13.50;88.90;100540.75;4935096;28;20576;-83
2021/08/17 03:17:48;;;;;;;5.43;3.10;;;;;;;13.54;88.22;100539.75;4952868;28;20070;-83
2021/08/17 03:20:19;;;;;;;12.77;3.05;;;;;;;13.52;88.21;100538.94;4968181;28;20058;-82
2021/08/17 03:22:46;;;;;;;10.35;2.60;;;;;;;13.52;88.62;100552.09;4935781;28;20050;-83
2021/08/17 03:25:14;;;;;;;10.02;2.90;;;;;;;13.50;88.26;100553.03;4948659;28;20167;-83
2021/08/17 03:27:41;;;;;;;9.00;2.72;;;;;;;13.56;87.36;100542.38;4981766;28;20545;-83
2021/08/17 03:30:12;;;;;;;11.13;3.15;;;;;;;13.53;87.91;100556.47;4952428;28;20043;-83
2021/08/17 03:32:39;;;;;;;12.15;2.70;;;;;;;13.55;88.12;100553.81;4950159;28;20153;-83
2021/08/17 03:35:08;;;;;;;12.68;2.30;;;;;;;13.54;87.87;100549.44;4938403;28;20765;-83
2021/08/17 03:37:34;;;;;;;5.78;3.13;;;;;;;13.51;87.82;100562.66;4930951;28;20082;-83
2021/08/17 03:40:01;;;;;;;16.50;3.35;;;;;;;13.51;87.67;100565.28;4967654;28;20063;-83
2021/08/17 03:42:29;;;;;;;8.82;3.05;;;;;;;13.49;88.20;100560.06;4966775;28;20162;-83
2021/08/17 03:45:00;;;;;;;10.60;2.80;;;;;;;13.45;88.57;100560.16;4951137;28;21734;-83
2021/08/17 03:47:27;;;;;;;11.13;2.67;;;;;;;13.40;88.23;100571.66;4950684;28;20074;-83
2021/08/17 03:49:54;;;;;;;14.15;3.20;;;;;;;13.36;89.21;100569.09;4934543;28;20050;-82
2021/08/17 03:52:20;;;;;;;7.05;2.90;;;;;;;13.34;88.72;100565.63;4952378;28;20058;-82
2021/08/17 03:54:47;;;;;;;11.85;2.95;;;;;;;13.29;89.04;100570.13;4948625;28;20046;-82
2021/08/17 03:57:14;;;;;;;5.32;2.58;;;;;;;13.36;88.52;100574.34;4939294;28;20465;-82
2021/08/17 03:59:41;;;;;;;8.98;2.05;;;;;;;13.34;88.20;100568.25;4950169;28;20580;-82
2021/08/17 04:02:07;;;;;;;9.90;2.65;;;;;;;13.34;88.04;100592.78;4951237;28;20058;-82
2021/08/17 04:04:34;;;;;;;8.43;2.83;;;;;;;13.34;87.64;100576.16;4953160;28;20062;-83
2021/08/17 04:07:01;;;;;;;13.20;2.35;;;;;;;13.37;86.80;100586.63;4948977;28;20051;-82
2021/08/17 04:09:27;;;;;;;7.45;2.83;;;;;;;13.33;87.45;100596.31;4935972;28;20046;-83
2021/08/17 04:11:54;;;;;;;10.18;2.55;;;;;;;13.37;86.83;100597.13;4935075;28;20106;-83
2021/08/17 04:14:21;;;;;;;9.45;2.25;;;;;;;13.39;86.45;100600.63;4952009;28;20046;-83
2021/08/17 04:16:47;;;;;;;9.73;2.85;;;;;;;13.40;86.38;100597.06;4965083;28;20055;-83
2021/08/17 04:19:14;;;;;;;9.88;3.00;;;;;;;13.40;86.63;100607.59;4960350;28;20042;-83
2021/08/17 04:21:41;;;;;;;6.90;2.40;;;;;;;13.31;87.20;100607.75;4932615;28;20078;-83
2021/08/17 04:24:07;;;;;;;9.73;3.10;;;;;;;13.27;87.14;100611.34;4963829;28;20345;-83
2021/08/17 04:26:34;;;;;;;5.05;2.92;;;;;;;13.20;87.95;100615.88;4949633;28;20051;-83
2021/08/17 04:29:00;;;;;;;13.85;2.92;;;;;;;13.15;87.66;100607.22;4936353;28;20391;-82
2021/08/17 04:31:27;;;;;;;8.70;2.72;;;;;;;13.14;87.69;100611.59;4948491;28;20201;-83
2021/08/17 04:33:54;;;;;;;13.15;3.78;;;;;;;13.15;86.45;100612.47;4952646;28;20121;-83
2021/08/17 04:36:20;;;;;;;8.23;2.38;;;;;;;13.17;86.61;100608.91;4950836;28;20047;-83
2021/08/17 04:38:47;;;;;;;5.93;2.22;;;;;;;13.22;86.19;100619.34;4947419;28;20072;-83
2021/08/17 04:41:13;;;;;;;9.65;2.97;;;;;;;13.33;85.00;100612.06;4937179;28;20047;-83
2021/08/17 04:43:40;;;;;;;8.80;2.17;;;;;;;13.36;84.89;100629.56;4946957;28;20173;-83
2021/08/17 04:46:07;;;;;;;7.18;2.15;;;;;;;13.37;84.09;100631.31;4943206;28;20047;-83
2021/08/17 04:48:33;;;;;;;5.70;2.35;;;;;;;13.34;84.92;100620.84;4931350;28;20079;-83
2021/08/17 04:51:00;;;;;;;5.90;2.00;;;;;;;13.37;84.20;100626.06;4931430;28;20059;-83
2021/08/17 04:53:27;;;;;;;4.97;2.83;;;;;;;13.38;84.00;100628.66;4931600;28;20047;-83
2021/08/17 04:55:54;;;;;;;10.45;2.50;;;;;;;13.39;83.91;100621.66;4944122;28;20046;-83
2021/08/17 04:58:21;;;;;;;6.72;2.38;;;;;;;13.45;83.28;100620.66;4929544;28;20051;-83
2021/08/17 05:00:48;;;;;;;4.50;1.70;;;;;;;13.47;82.82;100619.72;4942131;28;20054;-83
2021/08/17 05:03:16;;;;;;;9.63;2.55;;;;;;;13.49;83.40;100632.81;4931567;28;20069;-81
2021/08/17 05:05:42;;;;;;;9.43;2.22;;;;;;;13.51;83.23;100634.53;4920173;28;20055;-83
2021/08/17 05:08:10;;;;;;;4.47;1.80;;;;;;;13.53;82.98;100639.75;4932269;28;22359;-83
2021/08/17 05:10:37;;;;;;;7.43;2.28;;;;;;;13.56;82.50;100650.22;4933458;28;20114;-83
2021/08/17 05:13:05;;;;;;;8.23;2.10;;;;;;;13.59;82.62;100650.13;4945251;28;20134;-83
2021/08/17 05:15:32;;;;;;;9.60;2.15;;;;;;;13.60;82.41;100643.09;4931482;28;20122;-82
2021/08/17 05:17:59;;;;;;;9.32;2.20;;;;;;;13.59;82.53;100644.03;4945026;28;20071;-82
2021/08/17 05:20:27;;;;;;;7.78;2.63;;;;;;;13.61;82.82;100650.97;4930172;28;20094;-83
2021/08/17 05:22:53;;;;;;;19.23;3.25;;;;;;;13.64;82.73;100652.69;4949482;28;20706;-83
2021/08/17 05:25:20;;;;;;;5.65;2.25;;;;;;;13.73;81.51;100652.47;4944794;28;20055;-83
2021/08/17 05:27:47;;;;;;;10.93;3.22;;;;;;;13.71;81.72;100647.25;4932069;28;20054;-83
2021/08/17 05:30:15;;;;;;;7.18;2.90;;;;;;;13.71;82.18;100646.38;4958896;28;20038;-83
2021/08/17 05:32:41;;;;;;;14.88;2.58;;;;;;;13.73;82.35;100671.75;4926790;28;20055;-82
2021/08/17 05:35:09;;;;;;;5.72;1.70;;;;;;;13.69;81.80;100670.09;4929196;28;20142;-82
2021/08/17 05:37:37;;;;;;;8.50;2.72;;;;;;;13.68;82.00;100670.97;4913930;28;20139;-82
2021/08/17 05:40:06;;;;;;;12.52;2.42;;;;;;;13.69;82.38;100664.81;4941557;28;20055;-82
2021/08/17 05:42:32;;;;;;;7.80;1.55;;;;;;;13.68;82.06;100657.81;4923242;28;20444;-83
2021/08/17 05:44:59;;;;;;;9.23;2.90;;;;;;;13.65;81.41;100657.91;4939593;28;20059;-82
2021/08/17 05:47:26;;;;;;;6.65;1.88;;;;;;;13.66;81.37;100653.50;4926514;28;21497;-82
2021/08/17 05:49:54;;;;;;;9.18;2.17;;;;;;;13.60;81.86;100669.41;4927603;28;20039;-82
2021/08/17 05:52:20;;;;;;;9.95;1.80;;;;;;;13.62;81.85;100660.59;4959428;28;20063;-82
2021/08/17 05:54:47;;;;;;;11.25;2.75;;;;;;;13.65;81.67;100671.06;4942423;28;20518;-83
2021/08/17 05:57:13;;;;;;;12.55;3.63;;;;;;;13.70;81.57;100665.69;4928553;28;20074;-83
2021/08/17 05:59:40;;;;;;;4.40;2.20;;;;;;;13.81;80.08;100682.09;4945188;28;20085;-83
2021/08/17 06:02:06;;;;;;;13.75;3.28;;;;;;;13.84;78.54;100676.75;4937492;28;20046;-82
2021/08/17 06:04:33;;;;;;;10.73;1.60;;;;;;;13.81;79.45;100682.09;4945352;28;20066;-83
2021/08/17 06:07:00;;;;;;;4.07;2.90;;;;;;;13.76;78.88;100683.13;4959685;28;20532;-83
2021/08/17 06:09:27;;;;;;;7.88;1.73;;;;;;;13.68;80.01;100685.91;4942852;28;20066;-83
2021/08/17 06:11:57;;;;;;;3.97;1.33;;;;;;;13.67;79.87;100690.28;4949937;28;20043;-82
2021/08/17 06:14:25;;;;;;;10.15;2.25;;;;;;;13.71;79.76;100691.09;4944589;28;20127;-82
2021/08/17 06:16:51;;;;;;;8.13;1.83;;;;;;;13.74;79.53;100712.09;4944913;28;20059;-83
2021/08/17 06:19:18;;;;;;;14.57;1.77;;;;;;;13.70;79.31;100692.88;4979745;28;20410;-83
2021/08/17 06:21:45;;;;;;;8.05;1.80;;;;;;;13.74;79.05;100701.56;4981411;28;20189;-83
2021/08/17 06:24:13;;;;;;;8.35;1.65;;;;;;;13.77;78.50;100685.72;4964938;28;20152;-83
2021/08/17 06:26:39;;;;;;;6.05;1.52;;;;;;;13.84;78.44;100692.56;4960055;28;20075;-83
2021/08/17 06:29:06;;;;;;;20.27;4.82;;;;;;;13.85;78.47;100689.03;4980099;28;20050;-83
2021/08/17 06:31:33;;;;;;;11.10;1.80;;;;;;;13.90;78.17;100692.44;4950909;28;20054;-82
2021/08/17 06:34:01;;;;;;;5.47;1.63;;;;;;;13.92;77.70;100692.38;4943377;28;20039;-83
2021/08/17 06:36:36;;;;;;;7.63;1.48;;;;;;;13.83;77.94;100687.31;4945143;28;20051;-83
2021/08/17 06:39:05;;;;;;;4.45;2.05;;;;;;;13.76;78.22;100697.13;4944340;28;20538;-82
2021/08/17 06:41:33;;;;;;;11.18;2.00;;;;;;;13.71;78.23;100685.84;4945363;28;20525;-83
2021/08/17 06:44:01;;;;;;;7.85;1.50;;;;;;;13.71;78.34;100688.47;4944053;28;20083;-82
2021/08/17 06:46:28;;;;;;;10.88;2.22;;;;;;;13.79;78.01;100686.53;4945180;28;20075;-83
2021/08/17 06:48:56;;;;;;;7.70;2.05;;;;;;;13.90;77.72;100694.19;4947048;29;21338;-83
2021/08/17 06:51:23;;;;;;;9.10;1.33;;;;;;;14.09;77.11;100699.91;4941325;28;20063;-83
2021/08/17 06:53:49;;;;;;;10.38;1.55;;;;;;;14.28;75.44;100689.81;4916226;28;20051;-83
2021/08/17 06:56:16;;;;;;;11.30;2.10;;;;;;;14.34;74.95;100673.88;4926411;28;20050;-83
2021/08/17 06:58:42;;;;;;;6.75;1.20;;;;;;;14.38;74.86;100693.13;4928111;29;20051;-83
2021/08/17 07:01:09;;;;;;;7.03;1.45;;;;;;;14.50;73.09;100684.91;4933665;28;20046;-84
2021/08/17 07:03:36;;;;;;;8.30;1.92;;;;;;;14.69;73.21;100692.34;4943911;28;20055;-83
2021/08/17 07:06:02;;;;;;;8.48;1.45;;;;;;;14.91;72.54;100690.03;4963002;28;20047;-83
2021/08/17 07:08:29;;;;;;;3.35;1.45;;;;;;;15.16;70.60;100665.66;4926278;28;20047;-83
2021/08/17 07:10:55;;;;;;;4.75;1.73;;;;;;;15.37;70.29;100699.34;4928977;28;20048;-83
2021/08/17 07:13:22;;;;;;;8.10;1.80;;;;;;;15.46;69.44;100697.34;4941982;28;20671;-83
2021/08/17 07:15:49;;;;;;;6.28;1.60;;;;;;;15.37;68.55;100693.22;4944559;28;20071;-83
2021/08/17 07:18:16;;;;;;;8.52;1.63;;;;;;;15.50;67.67;100704.25;4944890;28;20066;-83
2021/08/17 07:20:43;;;;;;;6.45;1.42;;;;;;;15.57;67.76;100697.91;4940663;28;20047;-84
2021/08/17 07:23:09;;;;;;;7.72;1.67;;;;;;;15.53;67.10;100706.81;4943920;28;20071;-83
2021/08/17 07:25:36;;;;;;;10.77;1.50;;;;;;;15.71;66.98;100698.38;4939672;28;20772;-83
2021/08/17 07:28:05;;;;;;;6.75;1.73;;;;;;;16.06;65.35;100700.88;4945643;28;20128;-83
2021/08/17 07:30:32;;;;;;;6.35;1.17;;;;;;;16.39;64.01;100695.44;4946615;28;20070;-83
2021/08/17 07:32:58;;;;;;;11.52;1.85;;;;;;;16.73;62.09;100698.75;4959328;28;20034;-83
2021/08/17 07:35:25;;;;;;;11.38;2.13;;;;;;;16.98;62.39;100685.56;4931677;28;20062;-84
2021/08/17 07:37:52;;;;;;;12.88;2.00;;;;;;;16.93;61.00;100698.94;4944907;28;20429;-84
2021/08/17 07:40:19;;;;;;;7.53;1.85;;;;;;;16.67;62.27;100702.44;4944083;28;20102;-83
2021/08/17 07:42:46;;;;;;;7.82;1.80;;;;;;;16.72;61.88;100708.44;4930654;28;20066;-83
2021/08/17 07:45:15;;;;;;;5.18;1.50;;;;;;;16.88;61.19;100700.84;4942632;28;20055;-83
2021/08/17 07:47:46;;;;;;;7.90;1.90;;;;;;;17.03;61.20;100715.38;4953751;28;20075;-84
2021/08/17 07:50:14;;;;;;;8.65;1.58;;;;;;;17.56;59.31;100703.78;4938245;28;20076;-79
2021/08/17 07:52:42;;;;;;;7.03;2.05;;;;;;;17.44;59.62;100712.16;4943744;28;20053;-80
2021/08/17 07:55:12;;;;;;;11.35;2.55;;;;;;;17.33;59.84;100707.25;4954215;28;20050;-81
2021/08/17 07:57:41;;;;;;;7.32;1.80;;;;;;;17.12;60.25;100699.16;4940822;28;20054;-81
2021/08/17 08:00:11;;;;;;;9.70;2.10;;;;;;;17.18;59.83;100708.66;4960136;28;20167;-86
2021/08/17 08:02:38;;;;;;;7.85;1.77;;;;;;;17.41;59.68;100709.63;4943528;28;20862;-80
2021/08/17 08:05:07;;;;;;;6.00;1.67;;;;;;;18.07;57.75;100707.16;4957160;28;20077;-81
2021/08/17 08:07:33;;;;;;;4.65;1.40;;;;;;;18.14;56.83;100699.81;4954004;28;20053;-84
2021/08/17 08:10:00;;;;;;;8.43;1.27;;;;;;;18.26;56.03;100680.75;4944713;28;20357;-84
2021/08/17 08:12:26;;;;;;;7.38;1.90;;;;;;;18.13;57.08;100701.63;4974380;28;20054;-81
2021/08/17 08:14:53;;;;;;;4.28;1.30;;;;;;;18.62;56.55;100701.38;4958997;28;20116;-82
2021/08/17 08:17:19;;;;;;;5.32;1.25;;;;;;;18.87;54.89;100699.50;4956069;28;20145;-80
2021/08/17 08:19:46;;;;;;;6.18;2.03;;;;;;;18.76;55.32;100707.88;4943373;28;20042;-82
2021/08/17 08:22:13;;;;;;;7.55;2.38;;;;;;;18.14;55.96;100708.63;4957806;28;20051;-80
2021/08/17 08:24:39;;;;;;;7.97;1.90;;;;;;;17.80;57.33;100715.19;4959732;28;20057;-81
2021/08/17 08:27:06;;;;;;;5.85;2.03;;;;;;;17.51;58.64;100711.88;4957234;28;21101;-84
2021/08/17 08:29:34;;;;;;;6.90;2.20;;;;;;;17.46;59.02;100723.56;4960042;28;20903;-81
2021/08/17 08:32:01;;;;;;;11.55;1.95;;;;;;;17.34;58.90;100719.56;4971987;28;20390;-81
2021/08/17 08:34:27;;;;;;;7.55;2.28;;;;;;;17.33;58.99;100709.91;4957466;28;20050;-83
2021/08/17 08:36:54;;;;;;;6.07;2.03;;;;;;;17.33;59.10;100726.63;4945365;28;20055;-81
2021/08/17 08:39:21;;;;;;;7.13;1.67;;;;;;;17.39;58.83;100729.97;4955246;28;20031;-80
2021/08/17 08:41:48;;;;;;;7.47;1.80;;;;;;;17.48;57.84;100725.22;4958464;28;20061;-83
2021/08/17 08:44:16;;;;;;;5.88;1.92;;;;;;;17.64;57.81;100729.97;4945717;28;20046;-80
2021/08/17 08:46:44;;;;;;;11.02;2.78;;;;;;;17.75;56.89;100730.41;4943750;28;20047;-81
2021/08/17 08:49:11;;;;;;;8.45;2.30;;;;;;;17.81;56.81;100724.03;4962343;28;20085;-85
2021/08/17 08:51:38;;;;;;;6.78;2.35;;;;;;;17.84;57.25;100721.25;4954380;28;20539;-80
2021/08/17 08:54:06;;;;;;;6.85;2.25;;;;;;;17.88;56.42;100732.59;4960127;28;20054;-81
2021/08/17 08:56:33;;;;;;;6.50;1.88;;;;;;;17.86;56.92;100735.31;4957507;28;20875;-80
2021/08/17 08:59:00;;;;;;;7.03;2.00;;;;;;;18.00;56.33;100721.53;4959386;28;20066;-82
2021/08/17 09:01:27;;;;;;;11.07;1.90;;;;;;;18.00;56.76;100719.78;4960999;28;20073;-82
2021/08/17 09:03:57;;;;;;;5.20;1.83;;;;;;;18.17;56.33;100718.22;4943409;28;20605;-82
2021/08/17 09:06:26;;;;;;;4.55;1.50;;;;;;;18.18;55.98;100722.63;4958460;28;20055;-81
2021/08/17 09:09:12;;;;;;;5.43;2.63;;;;;;;18.24;56.07;100714.44;4959365;28;20054;-82
2021/08/17 09:11:42;;;;;;;5.93;3.00;;;;;;;18.29;55.96;100708.94;4958397;28;20046;-81
2021/08/17 09:14:24;;;;;;;6.35;3.03;;;;;;;18.32;55.59;100714.13;4958291;28;20056;-83
2021/08/17 09:16:57;;;;;;;12.63;2.50;;;;;;;18.41;55.69;100715.50;4973639;28;20077;-84
2021/08/17 09:19:36;;;;;;;6.68;2.25;;;;;;;18.27;56.01;100730.19;4959706;28;20050;-82
2021/08/17 09:22:22;;;;;;;7.93;3.10;;;;;;;17.96;57.57;100730.53;4961263;28;20425;-85
2021/08/17 09:24:57;;;;;;;6.55;2.47;;;;;;;18.02;57.60;100735.59;4960478;28;21163;-82
2021/08/17 09:27:28;;;;;;;7.65;2.85;;;;;;;17.90;57.98;100746.63;4958831;28;20540;-81
2021/08/17 09:30:11;;;;;;;7.25;2.58;;;;;;;17.63;59.24;100737.00;4960882;28;20069;-80
2021/08/17 09:32:56;;;;;;;6.15;2.55;;;;;;;17.95;58.51;100729.69;4956484;28;20046;-80
2021/08/17 09:35:26;;;;;;;9.77;3.20;;;;;;;18.17;57.25;100734.13;4960414;28;20055;-80
2021/08/17 09:38:15;;;;;;;7.32;2.63;;;;;;;18.17;57.17;100731.47;4960365;28;21631;-81
2021/08/17 09:40:42;;;;;;;9.25;3.17;;;;;;;18.06;57.46;100728.41;4961891;28;20124;-79
2021/08/17 09:43:27;;;;;;;3.22;2.60;;;;;;;18.12;57.63;100717.56;4962377;28;20527;-79
2021/08/17 09:45:54;;;;;;;6.20;2.88;;;;;;;18.09;57.79;100729.13;4957638;28;20629;-84
2021/08/17 09:48:32;;;;;;;5.88;2.85;;;;;;;18.01;57.75;100723.28;4945955;28;20104;-82
2021/08/17 09:50:58;;;;;;;11.02;3.50;;;;;;;17.96;58.24;100727.88;4941855;28;20062;-84
2021/08/17 09:53:26;;;;;;;7.63;3.25;;;;;;;17.77;58.63;100719.75;4944084;28;20054;-84
2021/08/17 09:55:56;;;;;;;7.10;2.65;;;;;;;17.71;59.13;100726.13;4957400;28;20054;-83
2021/08/17 09:58:34;;;;;;;5.78;3.13;;;;;;;17.69;59.36;100731.50;4958981;28;20050;-81
2021/08/17 10:01:07;;;;;;;5.85;2.55;;;;;;;17.68;59.47;100723.63;4976780;28;20537;-82
2021/08/17 10:03:35;;;;;;;6.57;2.80;;;;;;;17.63;59.74;100734.38;4957243;28;20054;-82
2021/08/17 10:06:02;;;;;;;9.65;4.65;;;;;;;17.57;59.97;100725.78;4976282;28;20050;-79
2021/08/17 10:08:33;;;;;;;8.07;3.10;;;;;;;17.65;59.80;100739.59;4943274;28;20452;-82
2021/08/17 10:11:01;;;;;;;7.95;2.67;;;;;;;17.75;59.67;100729.53;4957925;28;20433;-80
2021/08/17 10:13:31;;;;;;;7.63;3.05;;;;;;;17.89;58.53;100723.72;4974964;28;20053;-83
2021/08/17 10:15:58;;;;;;;5.07;3.00;;;;;;;18.16;57.15;100735.94;4940150;28;20047;-81
2021/08/17 10:18:37;;;;;;;3.55;2.47;;;;;;;18.41;54.78;100715.50;4958602;28;20058;-80
2021/08/17 10:21:04;;;;;;;4.35;2.67;;;;;;;18.75;53.93;100720.31;4973330;28;20046;-81
2021/08/17 10:23:33;;;;;;;5.95;3.03;;;;;;;18.88;52.74;100727.72;4958002;28;20113;-80
2021/08/17 10:26:02;;;;;;;8.18;3.38;;;;;;;19.10;52.86;100717.97;4958501;28;20064;-83
2021/08/17 10:28:39;;;;;;;6.20;2.90;;;;;;;19.36;51.71;100720.38;4972401;28;20063;-83
2021/08/17 10:31:12;;;;;;;7.15;3.35;;;;;;;19.68;51.03;100710.97;4973084;28;20050;-82
2021/08/17 10:33:51;;;;;;;6.45;3.13;;;;;;;19.64;51.25;100723.50;4970499;28;21423;-84
2021/08/17 10:36:47;;;;;;;6.30;2.70;;;;;;;19.51;50.79;100722.34;4975843;28;20042;-83
2021/08/17 10:39:19;;;;;;;10.30;2.58;;;;;;;19.42;51.30;100717.47;4937301;28;20056;-80
2021/08/17 10:41:52;;;;;;;5.10;2.67;;;;;;;19.19;52.25;100714.06;4974278;28;20039;-83
2021/08/17 10:44:31;;;;;;;11.50;3.50;;;;;;;19.10;52.46;100728.56;4958141;28;20096;-82
2021/08/17 10:47:10;;;;;;;5.28;3.25;;;;;;;18.84;53.02;100725.22;4941751;28;20141;-83
2021/08/17 10:49:51;;;;;;;4.68;3.35;;;;;;;18.74;53.25;100720.38;4976599;28;20066;-82
2021/08/17 10:52:36;;;;;;;9.93;4.57;;;;;;;18.59;52.75;100725.38;4953958;28;20088;-85
2021/08/17 10:55:42;;;;;;;10.85;4.80;;;;;;;18.47;53.95;100726.75;4961269;28;20066;-82
2021/08/17 10:58:10;;;;;;;8.23;3.88;;;;;;;18.33;53.51;100721.16;4954826;28;20050;-80
2021/08/17 11:00:56;;;;;;;7.72;4.25;;;;;;;18.38;53.96;100728.91;4975980;28;20050;-80
2021/08/17 11:03:48;;;;;;;10.23;3.97;;;;;;;18.50;54.45;100725.78;4943586;28;20145;-83
2021/08/17 11:06:38;;;;;;;7.88;4.20;;;;;;;18.51;54.72;100716.88;4943544;28;20129;-82
2021/08/17 11:09:17;;;;;;;7.45;3.80;;;;;;;18.66;54.36;100720.69;4961748;28;20054;-85
2021/08/17 11:12:10;;;;;;;9.93;3.90;;;;;;;18.63;53.91;100711.06;4959742;28;20097;-80
2021/08/17 11:14:40;;;;;;;7.55;5.20;;;;;;;18.37;54.50;100722.75;4955529;28;20077;-80
2021/08/17 11:17:11;;;;;;;9.07;5.20;;;;;;;18.19;55.53;100724.34;4956712;28;20062;-80
2021/08/17 11:19:45;;;;;;;8.07;4.53;;;;;;;17.99;55.74;100727.75;4959684;28;20050;-82
2021/08/17 11:22:25;;;;;;;11.43;4.80;;;;;;;18.13;55.30;100721.94;4956055;28;20050;-82
2021/08/17 11:24:56;;;;;;;6.78;4.68;;;;;;;18.33;54.49;100727.31;4957406;28;20050;-81
2021/08/17 11:27:35;;;;;;;8.52;5.45;;;;;;;18.40;54.11;100721.75;4956008;28;20527;-84
2021/08/17 11:30:15;;;;;;;9.18;5.90;;;;;;;18.17;54.15;100724.41;4943361;28;20053;-84